Time;durP1;ratioP1;P1;durP2;ratioP2;P2;SDS_P1;SDS_P2;PMS_P1;PMS_P2;Temp;Humidity;BMP_temperature;BMP_pressure;BME280_temperature;BME280_humidity;BME280_pressure;Samples;Min_cycle;Max_cycle;Signal;HPM_P1;HPM_P2
2023/09/23 00:00:47;;;;;;;14.75;7.78;;;;;;;22.92;76.64;99788.09;5064735;28;20070;-66
2023/09/23 00:03:13;;;;;;;16.65;7.65;;;;;;;22.97;76.63;99795.47;5066433;28;20250;-66
2023/09/23 00:05:39;;;;;;;10.77;7.93;;;;;;;22.92;76.84;99776.47;5062925;28;20040;-64
2023/09/23 00:08:06;;;;;;;13.35;7.82;;;;;;;22.93;75.81;99787.03;5063953;28;20036;-64
2023/09/23 00:10:34;;;;;;;10.30;7.75;;;;;;;22.88;75.13;99786.09;5060572;28;20036;-66
2023/09/23 00:13:00;;;;;;;13.57;8.50;;;;;;;22.68;76.44;99789.19;5062852;28;20028;-64
2023/09/23 00:15:25;;;;;;;12.68;7.72;;;;;;;22.67;76.57;99795.63;5064441;28;20426;-65
2023/09/23 00:17:53;;;;;;;13.43;8.23;;;;;;;22.69;77.16;99798.91;5065585;28;20219;-65
2023/09/23 00:20:21;;;;;;;13.35;8.55;;;;;;;22.73;78.44;99800.06;5062579;28;20048;-65
2023/09/23 00:22:47;;;;;;;16.73;8.75;;;;;;;22.77;79.17;99790.44;5061590;28;20036;-64
2023/09/23 00:25:13;;;;;;;15.30;9.75;;;;;;;22.81;78.93;99791.63;5070524;28;20054;-67
2023/09/23 00:27:41;;;;;;;15.07;9.15;;;;;;;22.85;79.55;99800.88;5059851;28;20091;-64
2023/09/23 00:30:07;;;;;;;16.52;9.38;;;;;;;22.83;79.88;99788.69;5069042;28;20322;-66
2023/09/23 00:32:34;;;;;;;15.38;10.07;;;;;;;22.77;80.39;99787.75;5061283;28;20036;-65
2023/09/23 00:35:00;;;;;;;16.90;8.95;;;;;;;22.72;79.67;99784.94;5071288;28;20143;-66
2023/09/23 00:37:27;;;;;;;13.25;8.63;;;;;;;22.79;79.37;99791.03;5070094;28;20472;-66
2023/09/23 00:39:53;;;;;;;12.13;8.60;;;;;;;22.77;79.64;99784.22;5068088;28;20281;-67
2023/09/23 00:42:19;;;;;;;16.10;8.77;;;;;;;22.84;79.74;99793.03;5069413;28;20344;-66
2023/09/23 00:44:45;;;;;;;12.23;8.02;;;;;;;22.90;79.74;99794.78;5064705;28;20196;-65
2023/09/23 00:47:15;;;;;;;14.60;8.73;;;;;;;22.81;76.63;99794.31;5067501;28;20040;-64
2023/09/23 00:49:43;;;;;;;15.10;8.30;;;;;;;22.67;77.49;99802.91;5069778;28;20087;-67
2023/09/23 00:52:09;;;;;;;13.40;8.57;;;;;;;22.43;79.24;99807.56;5069993;28;20037;-65
2023/09/23 00:54:36;;;;;;;15.25;9.48;;;;;;;22.46;79.56;99799.81;5062873;28;20033;-64
2023/09/23 00:57:03;;;;;;;15.77;9.00;;;;;;;22.48;80.01;99803.09;5061156;28;20043;-64
2023/09/23 00:59:29;;;;;;;16.58;9.38;;;;;;;22.55;80.20;99801.06;5060398;28;20122;-64
2023/09/23 01:01:56;;;;;;;13.05;8.23;;;;;;;22.49;79.72;99793.09;5061144;28;20040;-64
2023/09/23 01:04:22;;;;;;;14.00;8.35;;;;;;;22.32;78.45;99794.91;5061499;28;20633;-67
2023/09/23 01:06:48;;;;;;;14.57;8.93;;;;;;;22.12;79.37;99792.59;5060521;28;20036;-64
2023/09/23 01:09:19;;;;;;;14.35;8.38;;;;;;;22.13;79.36;99795.06;5061789;28;20131;-66
2023/09/23 01:11:45;;;;;;;12.20;8.32;;;;;;;22.15;80.29;99792.13;5060121;28;20055;-64
2023/09/23 01:14:11;;;;;;;16.25;8.27;;;;;;;22.16;78.72;99783.78;5060796;28;20045;-65
2023/09/23 01:16:37;;;;;;;13.60;8.68;;;;;;;22.15;78.28;99794.81;5060848;28;20025;-65
2023/09/23 01:19:03;;;;;;;15.60;9.35;;;;;;;21.98;78.03;99794.69;5061307;28;20031;-66
2023/09/23 01:21:28;;;;;;;19.33;9.75;;;;;;;21.99;78.21;99805.22;5060155;28;20036;-67
2023/09/23 01:23:54;;;;;;;17.38;9.07;;;;;;;22.01;79.94;99798.78;5061730;28;20031;-66
2023/09/23 01:26:19;;;;;;;15.77;9.10;;;;;;;21.98;81.79;99808.97;5060583;28;20187;-64
2023/09/23 01:28:48;;;;;;;13.77;8.57;;;;;;;21.97;80.25;99804.63;5060316;28;20029;-65
2023/09/23 01:31:13;;;;;;;17.05;8.25;;;;;;;21.97;79.10;99810.03;5059832;28;20116;-64
2023/09/23 01:33:38;;;;;;;18.63;9.50;;;;;;;21.97;80.15;99815.44;5059627;28;20037;-66
2023/09/23 01:36:05;;;;;;;12.80;9.07;;;;;;;22.00;81.49;99816.84;5059355;28;20033;-64
2023/09/23 01:38:31;;;;;;;13.77;9.30;;;;;;;21.99;82.20;99815.19;5059596;28;20095;-66
2023/09/23 01:40:57;;;;;;;12.35;8.30;;;;;;;21.97;82.42;99818.13;5060860;28;20041;-66
2023/09/23 01:43:22;;;;;;;14.75;8.45;;;;;;;22.03;82.73;99812.88;5058072;28;20091;-66
2023/09/23 01:45:48;;;;;;;13.75;8.30;;;;;;;21.99;83.12;99809.78;5059384;28;20224;-66
2023/09/23 01:48:14;;;;;;;20.50;8.73;;;;;;;21.98;83.30;99811.69;5058911;28;20393;-66
2023/09/23 01:50:41;;;;;;;16.98;8.77;;;;;;;21.99;83.16;99802.53;5059264;28;20040;-66
2023/09/23 01:53:09;;;;;;;12.25;8.23;;;;;;;22.03;83.25;99810.19;5059517;28;20049;-64
2023/09/23 01:55:35;;;;;;;15.82;10.27;;;;;;;22.01;83.23;99807.69;5059256;28;20040;-64
2023/09/23 01:58:01;;;;;;;13.07;8.82;;;;;;;22.08;82.22;99811.13;5058836;28;20098;-66
2023/09/23 02:00:26;;;;;;;13.05;8.35;;;;;;;22.12;82.10;99809.59;5059171;28;20314;-66
2023/09/23 02:02:55;;;;;;;14.98;8.75;;;;;;;22.19;82.21;99809.47;5059134;28;20370;-64
2023/09/23 02:05:24;;;;;;;15.88;9.00;;;;;;;22.17;82.14;99808.88;5058813;28;20606;-64
2023/09/23 02:07:50;;;;;;;12.40;8.32;;;;;;;22.07;82.46;99803.25;5056090;28;20032;-64
2023/09/23 02:10:19;;;;;;;13.15;8.15;;;;;;;22.08;82.65;99808.41;5059925;28;20041;-65
2023/09/23 02:12:45;;;;;;;14.57;8.50;;;;;;;22.11;82.62;99807.94;5058962;28;20024;-64
2023/09/23 02:15:15;;;;;;;11.65;7.72;;;;;;;22.13;82.38;99805.84;5058702;28;20334;-65
2023/09/23 02:17:44;;;;;;;13.63;8.15;;;;;;;21.97;80.75;99803.81;5059248;28;20025;-66
2023/09/23 02:20:21;;;;;;;17.67;8.10;;;;;;;21.85;79.91;99805.69;5058201;28;20037;-66
2023/09/23 02:22:54;;;;;;;12.25;7.97;;;;;;;21.62;79.84;99793.00;5059543;28;20123;-67
2023/09/23 02:25:20;;;;;;;12.23;7.75;;;;;;;21.78;79.86;99810.34;5059450;28;20079;-66
2023/09/23 02:27:46;;;;;;;16.95;8.50;;;;;;;21.75;80.91;99813.50;5059539;28;20045;-64
2023/09/23 02:30:13;;;;;;;11.75;7.82;;;;;;;21.75;81.88;99813.50;5058352;28;20091;-66
2023/09/23 02:32:39;;;;;;;15.35;7.53;;;;;;;21.75;80.80;99813.50;5059278;28;20041;-64
2023/09/23 02:35:08;;;;;;;16.10;8.20;;;;;;;21.60;82.50;99805.88;5058179;28;20139;-66
2023/09/23 02:37:34;;;;;;;13.98;8.40;;;;;;;21.50;84.31;99813.72;5059093;28;20249;-66
2023/09/23 02:39:59;;;;;;;14.30;8.27;;;;;;;21.62;84.42;99818.06;5059312;28;20082;-64
2023/09/23 02:42:24;;;;;;;15.40;8.52;;;;;;;21.68;84.30;99819.84;5058064;28;20045;-66
2023/09/23 02:44:50;;;;;;;12.32;7.22;;;;;;;21.75;84.18;99814.34;5058315;28;20438;-64
2023/09/23 02:47:16;;;;;;;12.18;7.57;;;;;;;21.81;83.74;99808.00;5057813;28;20033;-66
2023/09/23 02:49:44;;;;;;;11.93;7.18;;;;;;;21.84;81.76;99814.81;5057664;28;20043;-64
2023/09/23 02:52:10;;;;;;;13.77;7.57;;;;;;;21.83;80.71;99811.28;5058852;28;20048;-66
2023/09/23 02:54:35;;;;;;;14.57;7.30;;;;;;;21.84;81.08;99815.63;5056729;28;20400;-67
2023/09/23 02:57:01;;;;;;;13.05;8.27;;;;;;;21.84;82.41;99823.72;5057345;28;20047;-64
2023/09/23 02:59:31;;;;;;;15.77;8.13;;;;;;;21.82;82.55;99819.59;5057655;28;20044;-64
2023/09/23 03:01:57;;;;;;;14.27;8.18;;;;;;;21.69;83.15;99820.66;5057342;28;20044;-64
2023/09/23 03:04:23;;;;;;;12.38;8.07;;;;;;;21.76;81.31;99817.84;5057844;28;20090;-67
2023/09/23 03:07:00;;;;;;;11.30;7.03;;;;;;;21.76;78.83;99812.47;5059000;28;20040;-64
2023/09/23 03:09:31;;;;;;;11.80;7.03;;;;;;;21.56;78.93;99816.31;5058530;28;20045;-66
2023/09/23 03:11:57;;;;;;;16.35;8.68;;;;;;;21.45;80.21;99816.28;5058561;28;20032;-66
2023/09/23 03:14:28;;;;;;;16.52;8.63;;;;;;;21.48;80.49;99827.41;5057391;28;20032;-66
2023/09/23 03:16:57;;;;;;;15.38;7.75;;;;;;;21.38;79.71;99818.25;5057921;28;20033;-66
2023/09/23 03:19:25;;;;;;;15.23;7.88;;;;;;;21.38;79.01;99829.84;5049854;28;20048;-66
2023/09/23 03:21:55;;;;;;;12.77;7.60;;;;;;;21.17;79.11;99830.34;5058635;28;20054;-64
2023/09/23 03:24:22;;;;;;;14.18;8.25;;;;;;;21.01;79.11;99846.09;5057492;28;20235;-66
2023/09/23 03:26:47;;;;;;;18.65;8.65;;;;;;;20.92;78.82;99839.38;5057198;28;20033;-66
2023/09/23 03:29:13;;;;;;;27.52;9.77;;;;;;;20.95;78.08;99836.22;5057431;28;20323;-65
2023/09/23 03:31:39;;;;;;;19.42;8.10;;;;;;;20.84;77.37;99850.44;5058277;28;20079;-64
2023/09/23 03:34:05;;;;;;;25.25;9.60;;;;;;;20.71;78.29;99847.88;5058301;28;20041;-66
2023/09/23 03:36:31;;;;;;;34.65;9.98;;;;;;;20.68;78.08;99848.34;5056780;28;20060;-64
2023/09/23 03:39:00;;;;;;;28.52;9.38;;;;;;;20.70;78.18;99844.38;5056875;28;20083;-67
2023/09/23 03:41:29;;;;;;;29.02;9.82;;;;;;;20.73;78.36;99853.88;5057234;28;20032;-66
2023/09/23 03:43:54;;;;;;;24.42;9.55;;;;;;;20.78;78.97;99862.09;5056613;28;20075;-67
2023/09/23 03:46:20;;;;;;;23.05;9.80;;;;;;;20.84;79.62;99865.78;5057612;28;20051;-64
2023/09/23 03:48:46;;;;;;;24.50;10.50;;;;;;;20.70;82.98;99865.91;5057521;28;20089;-66
2023/09/23 03:51:14;;;;;;;21.67;10.70;;;;;;;20.67;84.50;99863.66;5058966;28;20047;-66
2023/09/23 03:53:40;;;;;;;26.42;10.30;;;;;;;20.62;84.84;99868.91;5076190;28;20044;-64
2023/09/23 03:56:05;;;;;;;15.93;8.43;;;;;;;20.56;85.00;99853.66;5076163;28;20353;-66
2023/09/23 03:58:31;;;;;;;16.50;8.68;;;;;;;20.61;85.45;99861.03;5075871;28;20032;-63
2023/09/23 04:01:05;;;;;;;18.73;9.35;;;;;;;20.72;84.72;99863.81;5076087;28;20040;-66
2023/09/23 04:03:34;;;;;;;16.05;8.27;;;;;;;20.71;84.59;99867.53;5076377;28;20214;-64
2023/09/23 04:06:00;;;;;;;13.05;8.65;;;;;;;20.40;86.59;99855.06;5075433;28;20039;-64
2023/09/23 04:08:26;;;;;;;18.52;9.18;;;;;;;20.44;86.69;99857.31;5076067;28;20048;-64
2023/09/23 04:10:51;;;;;;;14.45;8.30;;;;;;;20.64;85.66;99864.09;5075624;28;20577;-63
2023/09/23 04:13:17;;;;;;;17.33;9.25;;;;;;;20.78;84.49;99863.94;5076134;28;20033;-64
2023/09/23 04:15:43;;;;;;;19.55;10.32;;;;;;;20.67;83.96;99868.22;5075815;28;20041;-66
2023/09/23 04:18:09;;;;;;;22.23;8.80;;;;;;;20.65;84.89;99873.00;5075879;28;20032;-66
2023/09/23 04:20:36;;;;;;;12.55;7.35;;;;;;;20.78;85.23;99872.03;5075980;28;20050;-66
2023/09/23 04:23:02;;;;;;;11.57;7.22;;;;;;;20.54;86.52;99876.44;5075369;28;20024;-66
2023/09/23 04:25:27;;;;;;;14.25;7.18;;;;;;;20.56;86.36;99872.47;5075476;28;20063;-64
2023/09/23 04:27:53;;;;;;;18.98;7.60;;;;;;;20.50;86.57;99873.38;5073495;28;20036;-65
2023/09/23 04:30:19;;;;;;;11.90;7.25;;;;;;;20.63;85.99;99877.78;5075688;28;20036;-64
2023/09/23 04:32:45;;;;;;;17.08;9.57;;;;;;;20.79;84.90;99879.06;5075803;28;20029;-64
2023/09/23 04:35:12;;;;;;;15.13;9.27;;;;;;;20.88;83.99;99878.56;5075167;28;20036;-64
2023/09/23 04:37:38;;;;;;;13.52;8.60;;;;;;;20.97;83.56;99884.44;5075539;28;20024;-64
2023/09/23 04:40:10;;;;;;;15.75;8.23;;;;;;;20.95;83.16;99873.09;5075464;28;20055;-64
2023/09/23 04:42:43;;;;;;;13.90;8.63;;;;;;;20.99;82.86;99880.47;5073906;28;20321;-66
2023/09/23 04:45:10;;;;;;;14.25;8.25;;;;;;;20.87;83.66;99884.97;5075308;28;20055;-66
2023/09/23 04:47:36;;;;;;;16.63;7.43;;;;;;;20.79;84.03;99879.88;5072138;28;20083;-67
2023/09/23 04:50:05;;;;;;;16.23;7.25;;;;;;;20.98;83.19;99895.00;5075333;28;20036;-65
2023/09/23 04:52:34;;;;;;;15.55;8.98;;;;;;;21.12;82.51;99906.41;5075272;28;20037;-66
2023/09/23 04:55:02;;;;;;;13.82;8.57;;;;;;;21.22;82.29;99895.09;5074966;28;20051;-64
2023/09/23 04:57:27;;;;;;;12.65;8.18;;;;;;;21.34;81.46;99894.13;5074803;28;20592;-64
2023/09/23 04:59:54;;;;;;;18.52;9.68;;;;;;;21.43;81.38;99902.72;5075618;28;20385;-66
2023/09/23 05:02:20;;;;;;;14.40;9.82;;;;;;;21.49;81.49;99899.09;5075475;28;20039;-65
2023/09/23 05:04:46;;;;;;;12.95;8.70;;;;;;;21.50;81.25;99908.81;5075191;28;20036;-64
2023/09/23 05:07:12;;;;;;;16.55;9.32;;;;;;;21.31;82.85;99908.06;5075621;28;20268;-67
2023/09/23 05:09:39;;;;;;;17.17;10.00;;;;;;;21.35;83.78;99900.34;5075335;28;20068;-66
2023/09/23 05:12:04;;;;;;;16.15;9.63;;;;;;;21.35;82.43;99906.53;5075005;28;20048;-64
2023/09/23 05:14:30;;;;;;;18.38;9.38;;;;;;;21.48;81.16;99912.81;5075172;28;20025;-67
2023/09/23 05:16:58;;;;;;;13.93;7.85;;;;;;;21.58;80.26;99915.75;5076152;28;20349;-65
2023/09/23 05:19:24;;;;;;;14.93;7.95;;;;;;;21.66;79.22;99915.44;5078980;28;20044;-64
2023/09/23 05:21:53;;;;;;;18.45;8.93;;;;;;;21.58;79.29;99918.47;5078782;28;20333;-64
2023/09/23 05:24:19;;;;;;;14.13;8.13;;;;;;;21.65;79.57;99917.31;5078646;28;20047;-66
2023/09/23 05:26:44;;;;;;;18.67;10.02;;;;;;;21.78;79.47;99918.16;5078383;28;20041;-64
2023/09/23 05:29:10;;;;;;;18.60;9.82;;;;;;;21.92;79.24;99920.44;5078456;28;20049;-65
2023/09/23 05:31:38;;;;;;;14.20;8.07;;;;;;;22.01;77.90;99923.63;5078713;28;20036;-66
2023/09/23 05:34:04;;;;;;;15.07;9.75;;;;;;;22.04;76.97;99925.88;5055024;28;20351;-66
2023/09/23 05:36:31;;;;;;;15.80;8.30;;;;;;;22.18;77.11;99918.41;5078137;28;20039;-64
2023/09/23 05:38:57;;;;;;;16.13;7.80;;;;;;;22.43;76.83;99928.97;5078603;28;20032;-64
2023/09/23 05:41:23;;;;;;;14.43;7.63;;;;;;;22.61;76.08;99936.94;5078607;28;20104;-65
2023/09/23 05:43:51;;;;;;;13.23;7.10;;;;;;;22.77;74.67;99936.22;5079461;28;20036;-65
2023/09/23 05:46:17;;;;;;;14.85;7.43;;;;;;;22.81;75.23;99942.00;5078972;28;20028;-67
2023/09/23 05:48:42;;;;;;;15.25;7.93;;;;;;;22.86;75.36;99940.22;5079605;28;20047;-65
2023/09/23 05:51:08;;;;;;;14.40;7.80;;;;;;;22.89;77.05;99942.47;5079130;28;20468;-65
2023/09/23 05:53:34;;;;;;;13.27;7.60;;;;;;;22.82;77.51;99936.34;5079024;28;20070;-64
2023/09/23 05:56:00;;;;;;;13.43;7.55;;;;;;;22.92;77.55;99941.19;5078411;28;20043;-66
2023/09/23 05:58:26;;;;;;;16.08;7.72;;;;;;;22.98;77.71;99937.53;5078227;28;20036;-64
2023/09/23 06:00:52;;;;;;;15.38;6.95;;;;;;;23.07;77.36;99935.28;5078096;28;20107;-67
2023/09/23 06:03:17;;;;;;;11.55;7.50;;;;;;;23.08;78.09;99940.44;5078531;28;20037;-66
2023/09/23 06:05:44;;;;;;;10.75;7.53;;;;;;;23.24;77.48;99934.28;5078188;28;20150;-66
2023/09/23 06:08:10;;;;;;;11.25;7.13;;;;;;;23.41;76.77;99938.91;5078306;28;20048;-66
2023/09/23 06:10:36;;;;;;;13.75;7.28;;;;;;;23.63;75.74;99939.09;5078263;28;20086;-65
2023/09/23 06:13:03;;;;;;;12.48;7.30;;;;;;;23.85;74.96;99940.03;5078352;28;20032;-65
2023/09/23 06:15:28;;;;;;;21.05;8.13;;;;;;;24.00;73.66;99932.19;5078170;28;20047;-67
2023/09/23 06:17:54;;;;;;;10.95;6.85;;;;;;;24.18;72.57;99933.84;5078249;28;20104;-65
2023/09/23 06:20:20;;;;;;;13.00;7.32;;;;;;;24.28;72.61;99938.63;5078484;28;20047;-67
2023/09/23 06:22:46;;;;;;;12.10;7.32;;;;;;;24.35;70.60;99941.97;5078101;28;20044;-67
2023/09/23 06:25:11;;;;;;;17.63;8.30;;;;;;;24.17;71.97;99943.84;5078288;28;20043;-67
2023/09/23 06:27:37;;;;;;;15.68;8.77;;;;;;;24.40;72.05;99942.06;5079259;28;20622;-67
2023/09/23 06:30:03;;;;;;;16.80;11.23;;;;;;;24.39;71.38;99938.53;5077972;28;20036;-67
2023/09/23 06:32:29;;;;;;;15.60;9.23;;;;;;;24.28;72.83;99938.63;5077944;28;20037;-67
2023/09/23 06:34:54;;;;;;;17.80;8.73;;;;;;;24.53;71.43;99944.41;5077895;28;20054;-65
2023/09/23 06:37:19;;;;;;;13.93;7.82;;;;;;;24.73;70.55;99944.72;5077463;28;20185;-67
2023/09/23 06:39:45;;;;;;;13.15;7.70;;;;;;;24.84;69.90;99943.78;5077810;28;20043;-65
2023/09/23 06:42:11;;;;;;;15.50;8.32;;;;;;;24.90;69.53;99935.72;5078380;28;20392;-66
2023/09/23 06:44:36;;;;;;;16.15;10.65;;;;;;;24.94;69.39;99942.28;5077777;28;20029;-67
2023/09/23 06:47:01;;;;;;;13.98;8.18;;;;;;;24.97;67.84;99950.78;5077674;28;20036;-67
2023/09/23 06:49:27;;;;;;;16.55;7.57;;;;;;;25.13;67.35;99955.31;5078370;28;20425;-65
2023/09/23 06:51:52;;;;;;;13.45;7.15;;;;;;;25.26;66.38;99945.16;5076910;28;20044;-64
2023/09/23 06:54:18;;;;;;;11.65;5.88;;;;;;;25.50;64.33;99945.69;5077415;28;20112;-65
2023/09/23 06:56:43;;;;;;;18.95;10.48;;;;;;;25.38;63.83;99941.25;5076999;28;20032;-66
2023/09/23 06:59:09;;;;;;;10.80;6.63;;;;;;;25.41;63.44;99956.19;5076961;28;20311;-67
2023/09/23 07:01:35;;;;;;;9.98;6.80;;;;;;;25.65;63.10;99957.56;5076674;28;20249;-66
2023/09/23 07:04:02;;;;;;;13.07;6.03;;;;;;;25.77;63.18;99954.69;5077284;28;20435;-66
2023/09/23 07:06:27;;;;;;;11.60;5.63;;;;;;;25.81;62.56;99965.84;5076511;28;20043;-65
2023/09/23 07:08:52;;;;;;;10.85;5.10;;;;;;;25.80;62.44;99956.88;5076945;28;20032;-65
2023/09/23 07:11:18;;;;;;;10.82;5.13;;;;;;;25.92;61.22;99959.44;5077030;28;20273;-67
2023/09/23 07:13:44;;;;;;;14.73;5.55;;;;;;;26.04;61.18;99960.13;5077030;28;20063;-64
2023/09/23 07:16:16;;;;;;;13.20;6.13;;;;;;;26.19;60.08;99956.72;5078057;28;20227;-67
2023/09/23 07:18:44;;;;;;;10.52;6.38;;;;;;;26.33;60.82;99966.09;5077616;28;20244;-67
2023/09/23 07:21:09;;;;;;;9.80;5.82;;;;;;;26.36;61.36;99966.38;5076406;28;20036;-64
2023/09/23 07:23:35;;;;;;;13.45;6.25;;;;;;;26.57;59.25;99966.53;5077754;28;20042;-65
2023/09/23 07:26:02;;;;;;;18.25;9.05;;;;;;;26.69;59.62;99969.84;5077068;28;20071;-67
2023/09/23 07:28:28;;;;;;;15.85;8.20;;;;;;;26.67;59.05;99970.13;5077722;28;20040;-65
2023/09/23 07:30:53;;;;;;;10.63;5.68;;;;;;;26.67;59.32;99961.97;5077331;28;20380;-67
2023/09/23 07:33:19;;;;;;;13.18;7.75;;;;;;;26.83;58.22;99965.59;5077541;28;20040;-65
2023/09/23 07:35:44;;;;;;;13.63;6.93;;;;;;;26.81;58.05;99970.47;5077527;28;20314;-67
2023/09/23 07:38:10;;;;;;;15.85;7.10;;;;;;;26.76;58.20;99966.91;5078323;28;20055;-65
2023/09/23 07:40:39;;;;;;;11.80;5.55;;;;;;;26.86;57.78;99975.13;5077974;28;20297;-65
2023/09/23 07:43:05;;;;;;;12.15;7.40;;;;;;;27.10;59.17;99965.50;5078040;28;20147;-67
2023/09/23 07:45:30;;;;;;;11.68;7.20;;;;;;;27.11;57.41;99960.91;5077822;28;20060;-67
2023/09/23 07:47:56;;;;;;;14.30;9.63;;;;;;;27.24;57.24;99957.69;5077949;28;20044;-64
2023/09/23 07:50:21;;;;;;;11.60;5.45;;;;;;;27.29;57.40;99963.97;5078358;28;20036;-65
2023/09/23 07:52:47;;;;;;;14.85;5.53;;;;;;;27.43;55.69;99960.75;5067417;28;20052;-67
2023/09/23 07:55:13;;;;;;;12.23;6.57;;;;;;;27.58;56.22;99953.44;5057394;28;20040;-66
2023/09/23 07:57:39;;;;;;;11.35;5.38;;;;;;;27.63;55.70;99949.94;5056695;28;20040;-65
2023/09/23 08:00:09;;;;;;;26.85;9.63;;;;;;;27.69;54.62;99954.31;5057373;28;20045;-66
2023/09/23 08:02:35;;;;;;;16.23;5.32;;;;;;;27.79;55.21;99946.16;5057997;28;20044;-67
2023/09/23 08:05:03;;;;;;;11.00;5.88;;;;;;;27.79;54.03;99939.91;5058304;28;20037;-65
2023/09/23 08:07:32;;;;;;;11.68;6.10;;;;;;;27.83;54.97;99933.66;5058040;28;20041;-67
2023/09/23 08:09:58;;;;;;;9.88;4.97;;;;;;;27.90;53.28;99931.47;5057103;28;20040;-64
2023/09/23 08:12:24;;;;;;;13.00;5.63;;;;;;;28.01;52.85;99934.19;5056921;28;20361;-67
2023/09/23 08:14:51;;;;;;;12.77;5.82;;;;;;;27.99;54.36;99929.03;5057427;28;20323;-65
2023/09/23 08:17:17;;;;;;;12.00;5.57;;;;;;;28.04;52.78;99930.94;5057739;28;20040;-65
2023/09/23 08:19:44;;;;;;;12.23;5.22;;;;;;;28.06;52.47;99915.97;5047824;28;20032;-65
2023/09/23 08:22:09;;;;;;;9.93;4.70;;;;;;;28.14;52.10;99923.59;5056801;28;20323;-67
2023/09/23 08:24:35;;;;;;;9.45;5.25;;;;;;;28.12;52.56;99925.78;5056786;28;20048;-67
2023/09/23 08:27:03;;;;;;;8.32;4.82;;;;;;;28.22;51.81;99923.06;5055633;28;20040;-67
2023/09/23 08:29:29;;;;;;;8.50;4.93;;;;;;;28.31;51.54;99917.09;5055657;28;20036;-65
2023/09/23 08:31:55;;;;;;;12.45;6.03;;;;;;;28.41;49.85;99917.06;5055336;28;20025;-65
2023/09/23 08:34:20;;;;;;;13.90;5.25;;;;;;;28.29;50.15;99912.72;5055870;28;20260;-65
2023/09/23 08:36:46;;;;;;;7.57;5.03;;;;;;;28.42;51.40;99905.09;5054628;28;20037;-67
2023/09/23 08:39:11;;;;;;;9.60;4.93;;;;;;;28.43;52.00;99909.44;5055961;28;20037;-65
2023/09/23 08:41:37;;;;;;;13.93;5.10;;;;;;;28.51;51.83;99909.69;5055908;28;20029;-67
2023/09/23 08:44:07;;;;;;;8.45;5.22;;;;;;;28.45;50.30;99904.53;5055567;28;20056;-66
2023/09/23 08:46:32;;;;;;;12.45;6.07;;;;;;;28.58;51.08;99904.78;5052231;28;20021;-65
2023/09/23 08:48:59;;;;;;;12.38;5.18;;;;;;;28.67;49.79;99896.03;5055545;28;20151;-67
2023/09/23 08:51:27;;;;;;;10.40;5.28;;;;;;;28.81;51.02;99899.78;5060892;28;20047;-67
2023/09/23 08:53:53;;;;;;;10.88;5.50;;;;;;;28.84;50.55;99894.63;5079089;28;20047;-65
2023/09/23 08:56:20;;;;;;;10.18;5.47;;;;;;;28.91;48.83;99891.59;5079418;28;20036;-67
2023/09/23 08:58:48;;;;;;;14.02;5.75;;;;;;;28.84;46.89;99888.38;5079761;28;20334;-67
2023/09/23 09:01:14;;;;;;;8.68;4.97;;;;;;;28.77;49.22;99885.91;5079664;28;20111;-65
2023/09/23 09:03:39;;;;;;;11.05;5.32;;;;;;;28.77;47.65;99877.72;5078517;28;20036;-67
2023/09/23 09:06:18;;;;;;;12.38;5.22;;;;;;;28.74;49.83;99878.28;5079075;28;20036;-65
2023/09/23 09:08:43;;;;;;;17.02;6.25;;;;;;;28.82;48.46;99877.72;5078145;28;20071;-67
2023/09/23 09:11:09;;;;;;;64.28;11.00;;;;;;;28.86;48.86;99875.28;5080304;28;20300;-65
2023/09/23 09:13:36;;;;;;;38.67;7.65;;;;;;;28.85;47.16;99876.38;5078839;28;20025;-65
2023/09/23 09:16:07;;;;;;;15.10;5.65;;;;;;;28.64;46.56;99872.88;5079217;28;20044;-67
2023/09/23 09:18:33;;;;;;;12.13;6.22;;;;;;;28.56;47.24;99879.72;5079053;28;20095;-65
2023/09/23 09:20:58;;;;;;;24.73;7.65;;;;;;;28.50;46.73;99867.19;5079230;28;20374;-65
2023/09/23 09:23:32;;;;;;;16.55;5.32;;;;;;;28.54;48.97;99867.47;5079044;28;20429;-65
2023/09/23 09:25:58;;;;;;;9.73;5.40;;;;;;;28.58;47.54;99866.63;5078860;28;20330;-65
2023/09/23 09:28:24;;;;;;;17.30;5.40;;;;;;;28.60;48.76;99855.44;5079012;28;20037;-67
2023/09/23 09:30:55;;;;;;;11.25;5.30;;;;;;;28.56;47.17;99868.81;5078665;28;20318;-67
2023/09/23 09:33:24;;;;;;;11.77;4.90;;;;;;;28.48;47.53;99857.66;5078579;28;20032;-65
2023/09/23 09:35:57;;;;;;;11.15;4.88;;;;;;;28.46;46.38;99852.50;5078858;28;20059;-67
2023/09/23 09:38:24;;;;;;;12.77;5.38;;;;;;;28.44;46.47;99859.31;5077705;28;20337;-67
2023/09/23 09:40:51;;;;;;;12.85;5.03;;;;;;;28.45;45.62;99858.22;5078685;28;20044;-67
2023/09/23 09:43:18;;;;;;;13.18;5.65;;;;;;;28.46;46.24;99852.50;5078800;28;20029;-66
2023/09/23 09:45:44;;;;;;;14.88;5.13;;;;;;;28.42;47.25;99850.59;5075543;28;20029;-65
2023/09/23 09:48:13;;;;;;;12.75;5.15;;;;;;;28.47;46.84;99845.16;5078314;28;20099;-65
2023/09/23 09:50:39;;;;;;;17.55;5.78;;;;;;;28.49;47.63;99841.06;5078252;28;20099;-65
2023/09/23 09:53:06;;;;;;;13.25;5.97;;;;;;;28.49;47.72;99834.78;5062185;28;20095;-66
2023/09/23 09:55:32;;;;;;;13.45;5.95;;;;;;;28.59;48.81;99842.94;5060673;28;20067;-65
2023/09/23 09:58:01;;;;;;;12.20;5.35;;;;;;;28.54;48.49;99832.88;5060723;28;20072;-67
2023/09/23 10:00:27;;;;;;;11.52;5.00;;;;;;;28.54;47.61;99832.88;5059910;28;20392;-65
2023/09/23 10:03:00;;;;;;;7.20;5.28;;;;;;;28.53;47.40;99831.22;5058272;28;20056;-65
2023/09/23 10:05:40;;;;;;;9.32;5.38;;;;;;;28.55;48.72;99822.78;5058004;28;20037;-67
2023/09/23 10:08:12;;;;;;;8.65;5.68;;;;;;;28.59;48.71;99826.56;5054758;28;20044;-65
2023/09/23 10:10:47;;;;;;;15.00;5.50;;;;;;;28.73;47.90;99818.63;5059122;28;20033;-67
2023/09/23 10:13:23;;;;;;;9.85;5.00;;;;;;;28.79;46.67;99822.94;5059013;28;20392;-65
2023/09/23 10:16:01;;;;;;;13.05;4.53;;;;;;;28.83;46.25;99811.25;5059113;28;20052;-65
2023/09/23 10:18:35;;;;;;;9.25;4.78;;;;;;;28.90;45.72;99808.22;5059159;28;20028;-67
2023/09/23 10:21:02;;;;;;;11.23;4.38;;;;;;;28.90;46.16;99808.22;5060027;28;20426;-67
2023/09/23 10:23:32;;;;;;;11.57;4.97;;;;;;;28.89;46.26;99801.13;5060173;28;20069;-66
2023/09/23 10:25:58;;;;;;;11.80;5.30;;;;;;;28.91;47.66;99797.03;5058784;28;20032;-65
2023/09/23 10:28:28;;;;;;;10.15;4.90;;;;;;;28.94;44.85;99790.19;5059596;28;20055;-66
2023/09/23 10:31:03;;;;;;;17.33;5.30;;;;;;;29.12;46.41;99784.06;5059466;28;20382;-66
2023/09/23 10:33:30;;;;;;;9.77;4.88;;;;;;;29.32;45.98;99779.59;5059707;28;20029;-67
2023/09/23 10:35:59;;;;;;;12.30;5.28;;;;;;;29.34;46.03;99782.84;5056732;28;20037;-67
2023/09/23 10:38:27;;;;;;;12.13;5.20;;;;;;;29.29;45.98;99772.00;5059829;28;20057;-67
2023/09/23 10:40:54;;;;;;;10.48;4.57;;;;;;;29.22;46.47;99767.66;5059873;28;20212;-65
2023/09/23 10:43:24;;;;;;;16.55;5.15;;;;;;;29.31;45.87;99772.53;5059058;28;20040;-65
2023/09/23 10:45:51;;;;;;;11.15;4.57;;;;;;;29.29;47.19;99764.63;5059252;28;20155;-67
2023/09/23 10:48:16;;;;;;;13.75;5.25;;;;;;;29.33;46.36;99756.69;5059822;28;20036;-64
2023/09/23 10:50:43;;;;;;;10.30;5.30;;;;;;;29.36;47.01;99756.13;5058718;28;20345;-67
2023/09/23 10:53:09;;;;;;;7.03;4.53;;;;;;;29.39;47.23;99744.63;5059054;28;20319;-65
2023/09/23 10:55:35;;;;;;;15.65;5.50;;;;;;;29.45;46.00;99746.25;5059598;28;20072;-66
2023/09/23 10:58:01;;;;;;;10.40;6.20;;;;;;;29.62;46.01;99738.44;5059166;28;20066;-67
2023/09/23 11:00:28;;;;;;;7.63;5.00;;;;;;;29.55;45.19;99732.50;5058928;28;20214;-67
2023/09/23 11:02:54;;;;;;;11.57;5.05;;;;;;;29.49;46.06;99736.38;5059222;28;20079;-64
2023/09/23 11:05:21;;;;;;;11.52;4.93;;;;;;;29.50;45.20;99738.00;5057328;28;20100;-67
2023/09/23 11:07:47;;;;;;;13.55;5.07;;;;;;;29.52;45.59;99727.63;5058605;28;20108;-67
2023/09/23 11:10:12;;;;;;;10.05;4.88;;;;;;;29.53;45.55;99727.34;5059265;28;20047;-65
2023/09/23 11:12:42;;;;;;;11.95;4.95;;;;;;;29.60;44.91;99724.28;5057567;28;20041;-67
2023/09/23 11:15:08;;;;;;;13.02;6.00;;;;;;;29.59;45.94;99710.91;5058064;28;20383;-65
2023/09/23 11:17:34;;;;;;;11.40;4.82;;;;;;;29.63;45.10;99723.69;5057874;28;20326;-67
2023/09/23 11:20:00;;;;;;;10.48;5.32;;;;;;;29.65;45.84;99723.41;5058326;28;20301;-67
2023/09/23 11:22:27;;;;;;;13.88;5.97;;;;;;;29.69;45.49;99722.53;5058678;28;20068;-66